sensor_id;sensor_type;location;lat;lon;timestamp;P1;durP1;ratioP1;P2;durP2;ratioP2
20181;SDS011;10250;50.756;6.172;2023-04-03T00:00:50;5.80;;;1.20;;
20181;SDS011;10250;50.756;6.172;2023-04-03T00:02:50;3.43;;;1.20;;
20181;SDS011;10250;50.756;6.172;2023-04-03T00:04:51;9.03;;;1.37;;
20181;SDS011;10250;50.756;6.172;2023-04-03T00:06:52;3.67;;;1.10;;
20181;SDS011;10250;50.756;6.172;2023-04-03T00:08:52;3.70;;;1.30;;
20181;SDS011;10250;50.756;6.172;2023-04-03T00:10:53;4.17;;;1.20;;
20181;SDS011;10250;50.756;6.172;2023-04-03T00:12:53;3.23;;;1.20;;
20181;SDS011;10250;50.756;6.172;2023-04-03T00:14:54;6.20;;;1.40;;
20181;SDS011;10250;50.756;6.172;2023-04-03T00:16:55;4.53;;;1.20;;
20181;SDS011;10250;50.756;6.172;2023-04-03T00:18:55;7.97;;;1.27;;
20181;SDS011;10250;50.756;6.172;2023-04-03T00:20:56;3.20;;;1.17;;
20181;SDS011;10250;50.756;6.172;2023-04-03T00:22:57;7.07;;;1.60;;
20181;SDS011;10250;50.756;6.172;2023-04-03T00:24:57;4.10;;;1.30;;
20181;SDS011;10250;50.756;6.172;2023-04-03T00:26:58;2.93;;;1.10;;
20181;SDS011;10250;50.756;6.172;2023-04-03T00:28:59;2.87;;;1.00;;
20181;SDS011;10250;50.756;6.172;2023-04-03T00:30:59;2.87;;;1.20;;
20181;SDS011;10250;50.756;6.172;2023-04-03T00:33:00;2.33;;;0.90;;
20181;SDS011;10250;50.756;6.172;2023-04-03T00:35:01;2.33;;;0.90;;
20181;SDS011;10250;50.756;6.172;2023-04-03T00:37:02;3.43;;;1.20;;
20181;SDS011;10250;50.756;6.172;2023-04-03T00:39:03;4.40;;;1.17;;
20181;SDS011;10250;50.756;6.172;2023-04-03T00:41:03;5.77;;;1.40;;
20181;SDS011;10250;50.756;6.172;2023-04-03T00:43:25;3.40;;;1.07;;
20181;SDS011;10250;50.756;6.172;2023-04-03T00:47:38;3.57;;;1.20;;
20181;SDS011;10250;50.756;6.172;2023-04-03T00:49:40;3.60;;;1.17;;
20181;SDS011;10250;50.756;6.172;2023-04-03T00:51:42;2.57;;;1.00;;
20181;SDS011;10250;50.756;6.172;2023-04-03T00:53:44;3.50;;;1.10;;
20181;SDS011;10250;50.756;6.172;2023-04-03T00:55:48;2.30;;;0.90;;
20181;SDS011;10250;50.756;6.172;2023-04-03T00:57:50;3.60;;;0.80;;
20181;SDS011;10250;50.756;6.172;2023-04-03T00:59:54;5.13;;;1.10;;
20181;SDS011;10250;50.756;6.172;2023-04-03T01:01:59;2.57;;;1.07;;
20181;SDS011;10250;50.756;6.172;2023-04-03T01:04:00;3.77;;;1.20;;
20181;SDS011;10250;50.756;6.172;2023-04-03T01:06:02;3.40;;;1.20;;
20181;SDS011;10250;50.756;6.172;2023-04-03T01:08:03;3.63;;;1.20;;
20181;SDS011;10250;50.756;6.172;2023-04-03T01:10:07;3.40;;;1.20;;
20181;SDS011;10250;50.756;6.172;2023-04-03T01:12:28;2.13;;;1.03;;
20181;SDS011;10250;50.756;6.172;2023-04-03T01:14:31;3.53;;;1.23;;
20181;SDS011;10250;50.756;6.172;2023-04-03T01:16:32;3.00;;;1.10;;
20181;SDS011;10250;50.756;6.172;2023-04-03T01:18:33;3.10;;;1.10;;
20181;SDS011;10250;50.756;6.172;2023-04-03T01:20:48;2.30;;;0.80;;
20181;SDS011;10250;50.756;6.172;2023-04-03T01:22:56;2.03;;;0.90;;
20181;SDS011;10250;50.756;6.172;2023-04-03T01:25:05;1.93;;;1.00;;
20181;SDS011;10250;50.756;6.172;2023-04-03T01:27:06;2.13;;;0.87;;
20181;SDS011;10250;50.756;6.172;2023-04-03T01:29:10;4.93;;;1.30;;
20181;SDS011;10250;50.756;6.172;2023-04-03T01:31:22;4.17;;;1.20;;
20181;SDS011;10250;50.756;6.172;2023-04-03T01:33:26;2.70;;;1.07;;
20181;SDS011;10250;50.756;6.172;2023-04-03T01:35:27;4.83;;;1.57;;
20181;SDS011;10250;50.756;6.172;2023-04-03T01:37:28;3.73;;;1.00;;
20181;SDS011;10250;50.756;6.172;2023-04-03T01:39:29;4.03;;;1.20;;
20181;SDS011;10250;50.756;6.172;2023-04-03T01:41:30;5.03;;;1.33;;
20181;SDS011;10250;50.756;6.172;2023-04-03T01:43:30;2.57;;;1.10;;
20181;SDS011;10250;50.756;6.172;2023-04-03T01:45:31;4.23;;;1.10;;
20181;SDS011;10250;50.756;6.172;2023-04-03T01:47:31;4.70;;;1.40;;
20181;SDS011;10250;50.756;6.172;2023-04-03T01:49:32;3.17;;;1.20;;
20181;SDS011;10250;50.756;6.172;2023-04-03T01:51:32;4.30;;;1.30;;
20181;SDS011;10250;50.756;6.172;2023-04-03T01:53:33;3.13;;;1.10;;
20181;SDS011;10250;50.756;6.172;2023-04-03T01:55:34;3.27;;;1.07;;
20181;SDS011;10250;50.756;6.172;2023-04-03T01:57:35;3.10;;;0.93;;
20181;SDS011;10250;50.756;6.172;2023-04-03T01:59:35;2.00;;;1.00;;
20181;SDS011;10250;50.756;6.172;2023-04-03T02:01:36;3.77;;;1.30;;
20181;SDS011;10250;50.756;6.172;2023-04-03T02:03:36;1.80;;;0.97;;
20181;SDS011;10250;50.756;6.172;2023-04-03T02:05:37;4.93;;;1.20;;
20181;SDS011;10250;50.756;6.172;2023-04-03T02:07:38;4.43;;;1.03;;
20181;SDS011;10250;50.756;6.172;2023-04-03T02:09:38;8.03;;;1.70;;
20181;SDS011;10250;50.756;6.172;2023-04-03T02:11:39;6.37;;;1.40;;
20181;SDS011;10250;50.756;6.172;2023-04-03T02:13:40;3.37;;;1.20;;
20181;SDS011;10250;50.756;6.172;2023-04-03T02:15:40;6.70;;;1.20;;
20181;SDS011;10250;50.756;6.172;2023-04-03T02:17:41;3.07;;;1.03;;
20181;SDS011;10250;50.756;6.172;2023-04-03T02:19:42;4.17;;;1.30;;
20181;SDS011;10250;50.756;6.172;2023-04-03T02:21:42;4.77;;;1.10;;
20181;SDS011;10250;50.756;6.172;2023-04-03T02:23:43;6.00;;;1.33;;
20181;SDS011;10250;50.756;6.172;2023-04-03T02:25:43;2.67;;;1.03;;
20181;SDS011;10250;50.756;6.172;2023-04-03T02:27:44;2.30;;;0.90;;
20181;SDS011;10250;50.756;6.172;2023-04-03T02:29:44;7.23;;;1.60;;
20181;SDS011;10250;50.756;6.172;2023-04-03T02:31:45;3.67;;;1.00;;
20181;SDS011;10250;50.756;6.172;2023-04-03T02:33:46;4.07;;;1.27;;
20181;SDS011;10250;50.756;6.172;2023-04-03T02:35:46;3.97;;;1.20;;
20181;SDS011;10250;50.756;6.172;2023-04-03T02:37:54;2.50;;;1.00;;
20181;SDS011;10250;50.756;6.172;2023-04-03T02:39:54;4.20;;;1.43;;
20181;SDS011;10250;50.756;6.172;2023-04-03T02:41:55;3.93;;;1.10;;
20181;SDS011;10250;50.756;6.172;2023-04-03T02:43:55;4.70;;;1.10;;
20181;SDS011;10250;50.756;6.172;2023-04-03T02:45:56;5.20;;;1.07;;
20181;SDS011;10250;50.756;6.172;2023-04-03T02:47:56;3.70;;;1.30;;
20181;SDS011;10250;50.756;6.172;2023-04-03T02:49:57;4.10;;;1.20;;
20181;SDS011;10250;50.756;6.172;2023-04-03T02:51:57;6.83;;;1.40;;
20181;SDS011;10250;50.756;6.172;2023-04-03T02:53:58;7.07;;;1.53;;
20181;SDS011;10250;50.756;6.172;2023-04-03T02:55:59;5.03;;;1.43;;
20181;SDS011;10250;50.756;6.172;2023-04-03T02:57:59;2.60;;;1.13;;
20181;SDS011;10250;50.756;6.172;2023-04-03T03:00:00;3.23;;;1.13;;
20181;SDS011;10250;50.756;6.172;2023-04-03T03:02:00;5.50;;;1.40;;
20181;SDS011;10250;50.756;6.172;2023-04-03T03:04:01;7.57;;;1.17;;
20181;SDS011;10250;50.756;6.172;2023-04-03T03:08:07;3.10;;;1.07;;
20181;SDS011;10250;50.756;6.172;2023-04-03T03:10:08;5.27;;;2.10;;
20181;SDS011;10250;50.756;6.172;2023-04-03T03:12:09;3.73;;;1.10;;
20181;SDS011;10250;50.756;6.172;2023-04-03T03:14:10;7.50;;;1.53;;
20181;SDS011;10250;50.756;6.172;2023-04-03T03:16:10;4.60;;;1.40;;
20181;SDS011;10250;50.756;6.172;2023-04-03T03:18:11;5.17;;;1.50;;
20181;SDS011;10250;50.756;6.172;2023-04-03T03:20:12;4.47;;;1.40;;
20181;SDS011;10250;50.756;6.172;2023-04-03T03:22:15;3.73;;;1.30;;
20181;SDS011;10250;50.756;6.172;2023-04-03T03:24:16;5.07;;;1.23;;
20181;SDS011;10250;50.756;6.172;2023-04-03T03:26:17;3.90;;;1.20;;
20181;SDS011;10250;50.756;6.172;2023-04-03T03:28:18;4.10;;;1.37;;
20181;SDS011;10250;50.756;6.172;2023-04-03T03:30:18;5.97;;;1.33;;
20181;SDS011;10250;50.756;6.172;2023-04-03T03:32:19;10.53;;;1.70;;
20181;SDS011;10250;50.756;6.172;2023-04-03T03:34:20;5.83;;;1.60;;
20181;SDS011;10250;50.756;6.172;2023-04-03T03:36:20;5.23;;;1.50;;
20181;SDS011;10250;50.756;6.172;2023-04-03T03:38:21;6.57;;;1.60;;
20181;SDS011;10250;50.756;6.172;2023-04-03T03:40:22;7.17;;;1.67;;
20181;SDS011;10250;50.756;6.172;2023-04-03T03:42:22;2.57;;;1.17;;
20181;SDS011;10250;50.756;6.172;2023-04-03T03:44:23;5.47;;;1.53;;
20181;SDS011;10250;50.756;6.172;2023-04-03T03:46:24;5.27;;;1.47;;
20181;SDS011;10250;50.756;6.172;2023-04-03T03:48:24;4.70;;;1.33;;
20181;SDS011;10250;50.756;6.172;2023-04-03T03:50:25;4.20;;;1.30;;
20181;SDS011;10250;50.756;6.172;2023-04-03T03:52:26;4.73;;;1.50;;
20181;SDS011;10250;50.756;6.172;2023-04-03T03:54:26;5.80;;;1.50;;
20181;SDS011;10250;50.756;6.172;2023-04-03T03:56:27;8.67;;;2.53;;
20181;SDS011;10250;50.756;6.172;2023-04-03T03:58:27;8.97;;;1.43;;
20181;SDS011;10250;50.756;6.172;2023-04-03T04:00:28;5.03;;;1.43;;
20181;SDS011;10250;50.756;6.172;2023-04-03T04:02:28;4.63;;;1.43;;
20181;SDS011;10250;50.756;6.172;2023-04-03T04:04:29;4.30;;;1.57;;
20181;SDS011;10250;50.756;6.172;2023-04-03T04:06:30;5.03;;;1.60;;
20181;SDS011;10250;50.756;6.172;2023-04-03T04:08:30;3.77;;;1.30;;
20181;SDS011;10250;50.756;6.172;2023-04-03T04:10:31;4.80;;;1.40;;
20181;SDS011;10250;50.756;6.172;2023-04-03T04:12:32;6.07;;;1.80;;
20181;SDS011;10250;50.756;6.172;2023-04-03T04:14:33;4.83;;;1.53;;
20181;SDS011;10250;50.756;6.172;2023-04-03T04:16:33;2.90;;;1.00;;
20181;SDS011;10250;50.756;6.172;2023-04-03T04:18:34;4.00;;;1.40;;
20181;SDS011;10250;50.756;6.172;2023-04-03T04:20:35;10.77;;;1.90;;
20181;SDS011;10250;50.756;6.172;2023-04-03T04:22:35;3.93;;;1.33;;
20181;SDS011;10250;50.756;6.172;2023-04-03T04:24:36;4.53;;;1.30;;
20181;SDS011;10250;50.756;6.172;2023-04-03T04:26:36;7.47;;;1.80;;
20181;SDS011;10250;50.756;6.172;2023-04-03T04:28:37;7.93;;;1.77;;
20181;SDS011;10250;50.756;6.172;2023-04-03T04:30:38;6.27;;;1.87;;
20181;SDS011;10250;50.756;6.172;2023-04-03T04:32:39;5.93;;;1.53;;
20181;SDS011;10250;50.756;6.172;2023-04-03T04:34:39;6.17;;;1.70;;
20181;SDS011;10250;50.756;6.172;2023-04-03T04:36:40;5.43;;;1.43;;
20181;SDS011;10250;50.756;6.172;2023-04-03T04:38:41;5.50;;;1.60;;
20181;SDS011;10250;50.756;6.172;2023-04-03T04:40:41;6.97;;;1.60;;
20181;SDS011;10250;50.756;6.172;2023-04-03T04:42:42;7.33;;;1.67;;
20181;SDS011;10250;50.756;6.172;2023-04-03T04:44:43;7.53;;;2.20;;
20181;SDS011;10250;50.756;6.172;2023-04-03T04:46:43;8.10;;;1.77;;
20181;SDS011;10250;50.756;6.172;2023-04-03T04:48:44;5.47;;;1.77;;
20181;SDS011;10250;50.756;6.172;2023-04-03T04:50:44;7.40;;;1.83;;
20181;SDS011;10250;50.756;6.172;2023-04-03T04:52:46;5.23;;;1.60;;
20181;SDS011;10250;50.756;6.172;2023-04-03T04:54:46;4.77;;;1.67;;
20181;SDS011;10250;50.756;6.172;2023-04-03T04:56:47;7.77;;;1.70;;
20181;SDS011;10250;50.756;6.172;2023-04-03T04:58:47;5.63;;;2.00;;
20181;SDS011;10250;50.756;6.172;2023-04-03T05:00:48;7.13;;;1.67;;
20181;SDS011;10250;50.756;6.172;2023-04-03T05:02:48;5.17;;;1.60;;
20181;SDS011;10250;50.756;6.172;2023-04-03T05:04:49;7.57;;;1.97;;
20181;SDS011;10250;50.756;6.172;2023-04-03T05:06:51;11.27;;;2.40;;
20181;SDS011;10250;50.756;6.172;2023-04-03T05:08:52;10.70;;;2.03;;
20181;SDS011;10250;50.756;6.172;2023-04-03T05:10:52;7.73;;;1.90;;
20181;SDS011;10250;50.756;6.172;2023-04-03T05:12:53;5.60;;;1.60;;
20181;SDS011;10250;50.756;6.172;2023-04-03T05:14:54;8.57;;;1.83;;
20181;SDS011;10250;50.756;6.172;2023-04-03T05:16:54;4.87;;;1.70;;
20181;SDS011;10250;50.756;6.172;2023-04-03T05:18:55;10.97;;;2.03;;
20181;SDS011;10250;50.756;6.172;2023-04-03T05:20:55;6.87;;;2.03;;
20181;SDS011;10250;50.756;6.172;2023-04-03T05:22:57;8.23;;;1.90;;
20181;SDS011;10250;50.756;6.172;2023-04-03T05:24:58;8.33;;;2.17;;
20181;SDS011;10250;50.756;6.172;2023-04-03T05:26:58;7.43;;;2.13;;
20181;SDS011;10250;50.756;6.172;2023-04-03T05:28:59;5.10;;;1.83;;
20181;SDS011;10250;50.756;6.172;2023-04-03T05:30:59;6.37;;;1.67;;
20181;SDS011;10250;50.756;6.172;2023-04-03T05:33:00;5.97;;;1.77;;
20181;SDS011;10250;50.756;6.172;2023-04-03T05:35:00;6.80;;;1.80;;
20181;SDS011;10250;50.756;6.172;2023-04-03T05:37:01;6.07;;;1.67;;
20181;SDS011;10250;50.756;6.172;2023-04-03T05:39:04;7.57;;;1.87;;
20181;SDS011;10250;50.756;6.172;2023-04-03T05:41:04;9.57;;;2.53;;
20181;SDS011;10250;50.756;6.172;2023-04-03T05:43:05;8.10;;;2.50;;
20181;SDS011;10250;50.756;6.172;2023-04-03T05:45:06;8.33;;;2.37;;
20181;SDS011;10250;50.756;6.172;2023-04-03T05:47:07;7.63;;;2.23;;
20181;SDS011;10250;50.756;6.172;2023-04-03T05:49:08;7.93;;;2.03;;
20181;SDS011;10250;50.756;6.172;2023-04-03T05:51:13;11.07;;;2.27;;
20181;SDS011;10250;50.756;6.172;2023-04-03T05:53:21;5.47;;;1.67;;
20181;SDS011;10250;50.756;6.172;2023-04-03T05:55:25;7.40;;;2.17;;
20181;SDS011;10250;50.756;6.172;2023-04-03T05:59:35;7.47;;;2.17;;
20181;SDS011;10250;50.756;6.172;2023-04-03T06:01:35;11.00;;;2.27;;
20181;SDS011;10250;50.756;6.172;2023-04-03T06:03:37;10.03;;;2.63;;
20181;SDS011;10250;50.756;6.172;2023-04-03T06:05:39;8.47;;;2.30;;
20181;SDS011;10250;50.756;6.172;2023-04-03T06:07:40;8.93;;;2.57;;
20181;SDS011;10250;50.756;6.172;2023-04-03T06:09:40;8.53;;;2.37;;
20181;SDS011;10250;50.756;6.172;2023-04-03T06:11:41;8.77;;;2.40;;
20181;SDS011;10250;50.756;6.172;2023-04-03T06:13:42;8.77;;;2.60;;
20181;SDS011;10250;50.756;6.172;2023-04-03T06:15:42;9.50;;;2.50;;
20181;SDS011;10250;50.756;6.172;2023-04-03T06:17:43;11.30;;;2.70;;
20181;SDS011;10250;50.756;6.172;2023-04-03T06:19:44;9.50;;;2.40;;
20181;SDS011;10250;50.756;6.172;2023-04-03T06:21:45;11.20;;;3.43;;
20181;SDS011;10250;50.756;6.172;2023-04-03T06:23:47;8.87;;;2.23;;
20181;SDS011;10250;50.756;6.172;2023-04-03T06:25:47;10.97;;;2.60;;
20181;SDS011;10250;50.756;6.172;2023-04-03T06:27:48;8.43;;;2.37;;
20181;SDS011;10250;50.756;6.172;2023-04-03T06:29:48;11.50;;;2.83;;
20181;SDS011;10250;50.756;6.172;2023-04-03T06:31:49;9.33;;;2.73;;
20181;SDS011;10250;50.756;6.172;2023-04-03T06:33:50;9.07;;;2.83;;
20181;SDS011;10250;50.756;6.172;2023-04-03T06:35:55;9.80;;;2.50;;
20181;SDS011;10250;50.756;6.172;2023-04-03T06:37:57;9.17;;;2.57;;
20181;SDS011;10250;50.756;6.172;2023-04-03T06:39:58;8.53;;;2.13;;
20181;SDS011;10250;50.756;6.172;2023-04-03T06:42:00;10.83;;;2.70;;
20181;SDS011;10250;50.756;6.172;2023-04-03T06:44:00;8.50;;;2.53;;
20181;SDS011;10250;50.756;6.172;2023-04-03T06:46:02;10.47;;;2.60;;
20181;SDS011;10250;50.756;6.172;2023-04-03T06:48:03;8.40;;;2.30;;
20181;SDS011;10250;50.756;6.172;2023-04-03T06:50:04;8.03;;;2.20;;
20181;SDS011;10250;50.756;6.172;2023-04-03T06:52:06;9.63;;;2.80;;
20181;SDS011;10250;50.756;6.172;2023-04-03T06:54:07;10.83;;;2.83;;
20181;SDS011;10250;50.756;6.172;2023-04-03T06:56:08;8.33;;;2.30;;
20181;SDS011;10250;50.756;6.172;2023-04-03T06:58:08;9.07;;;2.50;;
20181;SDS011;10250;50.756;6.172;2023-04-03T07:00:10;6.93;;;2.17;;
20181;SDS011;10250;50.756;6.172;2023-04-03T07:02:11;7.13;;;2.03;;
20181;SDS011;10250;50.756;6.172;2023-04-03T07:04:12;8.37;;;2.30;;
20181;SDS011;10250;50.756;6.172;2023-04-03T07:06:14;8.50;;;2.50;;
20181;SDS011;10250;50.756;6.172;2023-04-03T07:08:15;8.20;;;2.13;;
20181;SDS011;10250;50.756;6.172;2023-04-03T07:10:16;8.10;;;2.17;;
20181;SDS011;10250;50.756;6.172;2023-04-03T07:12:17;8.10;;;2.17;;
20181;SDS011;10250;50.756;6.172;2023-04-03T07:14:18;10.97;;;2.30;;
20181;SDS011;10250;50.756;6.172;2023-04-03T07:16:18;7.10;;;2.17;;
20181;SDS011;10250;50.756;6.172;2023-04-03T07:18:19;6.63;;;1.90;;
20181;SDS011;10250;50.756;6.172;2023-04-03T07:20:21;7.33;;;2.00;;
20181;SDS011;10250;50.756;6.172;2023-04-03T07:22:22;6.83;;;2.03;;
20181;SDS011;10250;50.756;6.172;2023-04-03T07:24:22;7.57;;;1.70;;
20181;SDS011;10250;50.756;6.172;2023-04-03T07:26:23;6.07;;;1.70;;
20181;SDS011;10250;50.756;6.172;2023-04-03T07:28:24;9.13;;;2.10;;
20181;SDS011;10250;50.756;6.172;2023-04-03T07:30:25;5.60;;;1.60;;
20181;SDS011;10250;50.756;6.172;2023-04-03T07:32:26;9.33;;;2.17;;
20181;SDS011;10250;50.756;6.172;2023-04-03T07:34:26;5.00;;;1.40;;
20181;SDS011;10250;50.756;6.172;2023-04-03T07:36:27;5.33;;;1.47;;
20181;SDS011;10250;50.756;6.172;2023-04-03T07:38:28;5.57;;;1.53;;
20181;SDS011;10250;50.756;6.172;2023-04-03T07:40:29;5.50;;;1.70;;
20181;SDS011;10250;50.756;6.172;2023-04-03T07:42:30;5.07;;;1.50;;
20181;SDS011;10250;50.756;6.172;2023-04-03T07:44:30;6.07;;;1.73;;
20181;SDS011;10250;50.756;6.172;2023-04-03T07:46:31;5.47;;;1.70;;
20181;SDS011;10250;50.756;6.172;2023-04-03T07:48:32;6.87;;;1.70;;
20181;SDS011;10250;50.756;6.172;2023-04-03T07:50:32;6.10;;;1.67;;
20181;SDS011;10250;50.756;6.172;2023-04-03T07:52:33;5.67;;;1.40;;
20181;SDS011;10250;50.756;6.172;2023-04-03T07:54:34;3.50;;;1.30;;
20181;SDS011;10250;50.756;6.172;2023-04-03T07:56:35;5.93;;;1.60;;
20181;SDS011;10250;50.756;6.172;2023-04-03T07:58:35;4.60;;;1.50;;
20181;SDS011;10250;50.756;6.172;2023-04-03T08:00:37;4.67;;;1.37;;
20181;SDS011;10250;50.756;6.172;2023-04-03T08:02:38;4.73;;;1.43;;
20181;SDS011;10250;50.756;6.172;2023-04-03T08:04:38;6.73;;;1.57;;
20181;SDS011;10250;50.756;6.172;2023-04-03T08:06:39;4.87;;;1.37;;
20181;SDS011;10250;50.756;6.172;2023-04-03T08:08:40;4.53;;;1.63;;
20181;SDS011;10250;50.756;6.172;2023-04-03T08:10:41;7.60;;;1.70;;
20181;SDS011;10250;50.756;6.172;2023-04-03T08:12:42;6.03;;;1.70;;
20181;SDS011;10250;50.756;6.172;2023-04-03T08:14:46;7.90;;;1.70;;
20181;SDS011;10250;50.756;6.172;2023-04-03T08:16:47;4.87;;;1.47;;
20181;SDS011;10250;50.756;6.172;2023-04-03T08:18:48;10.37;;;1.77;;
20181;SDS011;10250;50.756;6.172;2023-04-03T08:20:49;6.40;;;1.67;;
20181;SDS011;10250;50.756;6.172;2023-04-03T08:22:50;4.93;;;1.63;;
20181;SDS011;10250;50.756;6.172;2023-04-03T08:24:51;5.70;;;1.33;;
20181;SDS011;10250;50.756;6.172;2023-04-03T08:26:51;7.03;;;1.70;;
20181;SDS011;10250;50.756;6.172;2023-04-03T08:28:52;5.63;;;1.60;;
20181;SDS011;10250;50.756;6.172;2023-04-03T08:30:52;7.03;;;1.80;;
20181;SDS011;10250;50.756;6.172;2023-04-03T08:32:53;5.17;;;1.43;;
20181;SDS011;10250;50.756;6.172;2023-04-03T08:34:53;6.60;;;1.63;;
20181;SDS011;10250;50.756;6.172;2023-04-03T08:36:54;6.87;;;1.70;;
20181;SDS011;10250;50.756;6.172;2023-04-03T08:38:55;4.53;;;1.50;;
20181;SDS011;10250;50.756;6.172;2023-04-03T08:41:02;6.63;;;1.53;;
20181;SDS011;10250;50.756;6.172;2023-04-03T08:45:45;5.13;;;1.43;;
20181;SDS011;10250;50.756;6.172;2023-04-03T08:50:02;6.53;;;1.63;;
20181;SDS011;10250;50.756;6.172;2023-04-03T08:52:10;6.97;;;2.00;;
20181;SDS011;10250;50.756;6.172;2023-04-03T08:54:17;3.17;;;1.13;;
20181;SDS011;10250;50.756;6.172;2023-04-03T08:56:33;6.70;;;1.70;;
20181;SDS011;10250;50.756;6.172;2023-04-03T08:58:43;6.83;;;1.57;;
20181;SDS011;10250;50.756;6.172;2023-04-03T09:01:06;4.67;;;1.30;;
20181;SDS011;10250;50.756;6.172;2023-04-03T09:03:31;4.50;;;1.50;;
20181;SDS011;10250;50.756;6.172;2023-04-03T09:08:00;6.33;;;1.80;;
20181;SDS011;10250;50.756;6.172;2023-04-03T09:10:10;4.67;;;1.47;;
20181;SDS011;10250;50.756;6.172;2023-04-03T09:14:25;7.23;;;1.60;;
20181;SDS011;10250;50.756;6.172;2023-04-03T09:17:00;6.27;;;1.77;;
20181;SDS011;10250;50.756;6.172;2023-04-03T09:21:34;3.33;;;1.23;;
20181;SDS011;10250;50.756;6.172;2023-04-03T09:23:45;7.30;;;1.57;;
20181;SDS011;10250;50.756;6.172;2023-04-03T09:25:49;7.83;;;2.00;;
20181;SDS011;10250;50.756;6.172;2023-04-03T09:27:53;6.37;;;1.70;;
20181;SDS011;10250;50.756;6.172;2023-04-03T09:29:55;4.37;;;1.40;;
20181;SDS011;10250;50.756;6.172;2023-04-03T09:31:59;9.30;;;1.93;;
20181;SDS011;10250;50.756;6.172;2023-04-03T09:34:06;7.13;;;1.70;;
20181;SDS011;10250;50.756;6.172;2023-04-03T09:36:13;8.47;;;1.83;;
20181;SDS011;10250;50.756;6.172;2023-04-03T09:42:29;7.50;;;1.50;;
20181;SDS011;10250;50.756;6.172;2023-04-03T09:44:32;4.47;;;1.23;;
20181;SDS011;10250;50.756;6.172;2023-04-03T09:46:35;5.60;;;1.40;;
20181;SDS011;10250;50.756;6.172;2023-04-03T09:48:37;5.70;;;1.77;;
20181;SDS011;10250;50.756;6.172;2023-04-03T09:50:40;6.53;;;1.50;;
20181;SDS011;10250;50.756;6.172;2023-04-03T09:53:06;6.03;;;1.40;;
20181;SDS011;10250;50.756;6.172;2023-04-03T09:55:25;7.53;;;1.40;;
20181;SDS011;10250;50.756;6.172;2023-04-03T09:57:31;7.53;;;1.83;;
20181;SDS011;10250;50.756;6.172;2023-04-03T09:59:32;3.17;;;1.10;;
20181;SDS011;10250;50.756;6.172;2023-04-03T10:01:34;4.63;;;1.27;;
20181;SDS011;10250;50.756;6.172;2023-04-03T10:03:39;4.90;;;1.30;;
20181;SDS011;10250;50.756;6.172;2023-04-03T10:05:46;4.63;;;1.43;;
20181;SDS011;10250;50.756;6.172;2023-04-03T10:07:46;6.90;;;1.30;;
20181;SDS011;10250;50.756;6.172;2023-04-03T10:09:54;5.20;;;1.50;;
20181;SDS011;10250;50.756;6.172;2023-04-03T10:14:16;5.70;;;1.20;;
20181;SDS011;10250;50.756;6.172;2023-04-03T10:16:21;3.23;;;1.20;;
20181;SDS011;10250;50.756;6.172;2023-04-03T10:20:39;5.53;;;1.40;;
20181;SDS011;10250;50.756;6.172;2023-04-03T10:22:56;3.90;;;1.30;;
20181;SDS011;10250;50.756;6.172;2023-04-03T10:27:13;3.83;;;1.10;;
20181;SDS011;10250;50.756;6.172;2023-04-03T10:34:23;3.67;;;0.93;;
20181;SDS011;10250;50.756;6.172;2023-04-03T10:43:53;3.57;;;1.13;;
20181;SDS011;10250;50.756;6.172;2023-04-03T10:55:05;2.97;;;0.90;;
20181;SDS011;10250;50.756;6.172;2023-04-03T10:57:15;5.13;;;1.07;;
20181;SDS011;10250;50.756;6.172;2023-04-03T10:59:18;1.60;;;0.77;;
20181;SDS011;10250;50.756;6.172;2023-04-03T11:01:31;6.10;;;1.03;;
20181;SDS011;10250;50.756;6.172;2023-04-03T11:03:36;4.77;;;1.03;;
20181;SDS011;10250;50.756;6.172;2023-04-03T11:05:44;4.53;;;1.00;;
20181;SDS011;10250;50.756;6.172;2023-04-03T11:07:48;2.10;;;0.87;;
20181;SDS011;10250;50.756;6.172;2023-04-03T11:09:54;3.70;;;1.00;;
20181;SDS011;10250;50.756;6.172;2023-04-03T11:12:11;5.37;;;1.03;;
20181;SDS011;10250;50.756;6.172;2023-04-03T11:14:32;4.37;;;1.03;;
20181;SDS011;10250;50.756;6.172;2023-04-03T11:16:38;4.10;;;1.07;;
20181;SDS011;10250;50.756;6.172;2023-04-03T11:18:43;4.77;;;1.00;;
20181;SDS011;10250;50.756;6.172;2023-04-03T11:25:22;2.20;;;0.90;;
20181;SDS011;10250;50.756;6.172;2023-04-03T11:27:25;1.67;;;0.80;;
20181;SDS011;10250;50.756;6.172;2023-04-03T11:29:34;3.30;;;1.00;;
20181;SDS011;10250;50.756;6.172;2023-04-03T11:34:33;3.23;;;1.10;;
20181;SDS011;10250;50.756;6.172;2023-04-03T11:37:00;5.80;;;1.10;;
20181;SDS011;10250;50.756;6.172;2023-04-03T11:39:08;3.03;;;0.90;;
20181;SDS011;10250;50.756;6.172;2023-04-03T11:41:21;3.63;;;0.83;;
20181;SDS011;10250;50.756;6.172;2023-04-03T11:43:29;4.10;;;1.00;;
20181;SDS011;10250;50.756;6.172;2023-04-03T11:47:52;4.23;;;1.20;;
20181;SDS011;10250;50.756;6.172;2023-04-03T11:52:01;4.40;;;1.10;;
20181;SDS011;10250;50.756;6.172;2023-04-03T11:56:56;2.23;;;0.90;;
20181;SDS011;10250;50.756;6.172;2023-04-03T11:59:15;3.23;;;1.23;;
20181;SDS011;10250;50.756;6.172;2023-04-03T12:03:56;2.27;;;0.67;;
20181;SDS011;10250;50.756;6.172;2023-04-03T12:10:34;2.03;;;0.80;;
20181;SDS011;10250;50.756;6.172;2023-04-03T12:12:39;2.93;;;1.00;;
20181;SDS011;10250;50.756;6.172;2023-04-03T12:14:40;1.57;;;0.70;;
20181;SDS011;10250;50.756;6.172;2023-04-03T12:18:55;2.00;;;0.83;;
20181;SDS011;10250;50.756;6.172;2023-04-03T12:20:57;1.43;;;0.73;;
20181;SDS011;10250;50.756;6.172;2023-04-03T12:23:08;3.37;;;0.90;;
20181;SDS011;10250;50.756;6.172;2023-04-03T12:25:41;4.30;;;0.90;;
20181;SDS011;10250;50.756;6.172;2023-04-03T12:27:49;2.80;;;1.00;;
20181;SDS011;10250;50.756;6.172;2023-04-03T12:39:20;3.33;;;0.90;;
20181;SDS011;10250;50.756;6.172;2023-04-03T12:41:44;2.60;;;1.00;;
20181;SDS011;10250;50.756;6.172;2023-04-03T12:46:20;2.33;;;0.67;;
20181;SDS011;10250;50.756;6.172;2023-04-03T12:48:24;3.83;;;0.70;;
20181;SDS011;10250;50.756;6.172;2023-04-03T12:50:30;3.20;;;0.77;;
20181;SDS011;10250;50.756;6.172;2023-04-03T12:54:45;7.03;;;0.93;;
20181;SDS011;10250;50.756;6.172;2023-04-03T12:56:47;5.87;;;1.07;;
20181;SDS011;10250;50.756;6.172;2023-04-03T12:58:48;0.93;;;0.70;;
20181;SDS011;10250;50.756;6.172;2023-04-03T13:01:03;2.70;;;1.23;;
20181;SDS011;10250;50.756;6.172;2023-04-03T13:03:24;4.40;;;1.10;;
20181;SDS011;10250;50.756;6.172;2023-04-03T13:05:26;2.23;;;0.90;;
20181;SDS011;10250;50.756;6.172;2023-04-03T13:07:29;2.10;;;0.80;;
20181;SDS011;10250;50.756;6.172;2023-04-03T13:09:33;2.83;;;0.90;;
20181;SDS011;10250;50.756;6.172;2023-04-03T13:11:34;2.77;;;0.83;;
20181;SDS011;10250;50.756;6.172;2023-04-03T13:13:40;6.20;;;1.17;;
20181;SDS011;10250;50.756;6.172;2023-04-03T13:15:56;4.27;;;0.97;;
20181;SDS011;10250;50.756;6.172;2023-04-03T13:17:57;4.00;;;1.00;;
20181;SDS011;10250;50.756;6.172;2023-04-03T13:20:09;4.87;;;1.10;;
20181;SDS011;10250;50.756;6.172;2023-04-03T13:22:26;5.47;;;1.20;;
20181;SDS011;10250;50.756;6.172;2023-04-03T13:24:30;4.67;;;1.20;;
20181;SDS011;10250;50.756;6.172;2023-04-03T13:26:35;3.40;;;1.13;;
20181;SDS011;10250;50.756;6.172;2023-04-03T13:28:36;3.87;;;1.17;;
20181;SDS011;10250;50.756;6.172;2023-04-03T13:30:39;4.50;;;1.00;;
20181;SDS011;10250;50.756;6.172;2023-04-03T13:32:41;4.53;;;0.73;;
20181;SDS011;10250;50.756;6.172;2023-04-03T13:34:43;3.53;;;0.97;;
20181;SDS011;10250;50.756;6.172;2023-04-03T13:36:45;2.57;;;0.93;;
20181;SDS011;10250;50.756;6.172;2023-04-03T13:39:04;3.03;;;1.00;;
20181;SDS011;10250;50.756;6.172;2023-04-03T13:41:26;2.50;;;0.90;;
20181;SDS011;10250;50.756;6.172;2023-04-03T13:43:40;3.87;;;1.23;;
20181;SDS011;10250;50.756;6.172;2023-04-03T13:45:40;0.93;;;0.57;;
20181;SDS011;10250;50.756;6.172;2023-04-03T13:48:17;5.03;;;1.60;;
20181;SDS011;10250;50.756;6.172;2023-04-03T13:50:20;3.40;;;1.10;;
20181;SDS011;10250;50.756;6.172;2023-04-03T13:52:30;1.70;;;0.80;;